Aviation Digital Data Service (ADDS)

Output produced by METARs form (0246 UTC 22 February 2019)
found at http://www.aviationweather.gov/metar/data/
 
METAR text: EGAA 220220Z 14013KT CAVOK 10/07 Q1022
Conditions at: EGAA (BELFAST/ALDERGRO, GB) observed 0220 UTC 22 February 2019
Temperature: 10.0°C (50°F)
Dewpoint: 7.0°C (45°F) [RH = 82%]
Pressure (altimeter): 30.18 inches Hg (1022.0 mb)
Winds: from the SE (140 degrees) at 15 MPH (13 knots; 6.7 m/s)
Visibility: 6 or more miles (10+ km)
Ceiling: ceiling and visibility are OK
Clouds: unknown
Weather: no significant weather observed at this time

METAR text: EGAA 220150Z 14013KT CAVOK 10/07 Q1022
Conditions at: EGAA (BELFAST/ALDERGRO, GB) observed 0150 UTC 22 February 2019
Temperature: 10.0°C (50°F)
Dewpoint: 7.0°C (45°F) [RH = 82%]
Pressure (altimeter): 30.18 inches Hg (1022.0 mb)
Winds: from the SE (140 degrees) at 15 MPH (13 knots; 6.7 m/s)
Visibility: 6 or more miles (10+ km)
Ceiling: ceiling and visibility are OK
Clouds: unknown
Weather: no significant weather observed at this time

METAR text: EGAA 220120Z 14011KT CAVOK 10/07 Q1023
Conditions at: EGAA (BELFAST/ALDERGRO, GB) observed 0120 UTC 22 February 2019
Temperature: 10.0°C (50°F)
Dewpoint: 7.0°C (45°F) [RH = 82%]
Pressure (altimeter): 30.21 inches Hg (1023.0 mb)
Winds: from the SE (140 degrees) at 13 MPH (11 knots; 5.7 m/s)
Visibility: 6 or more miles (10+ km)
Ceiling: ceiling and visibility are OK
Clouds: unknown
Weather: no significant weather observed at this time

METAR text: EGAA 220050Z 14012KT CAVOK 10/07 Q1022
Conditions at: EGAA (BELFAST/ALDERGRO, GB) observed 0050 UTC 22 February 2019
Temperature: 10.0°C (50°F)
Dewpoint: 7.0°C (45°F) [RH = 82%]
Pressure (altimeter): 30.18 inches Hg (1022.0 mb)
Winds: from the SE (140 degrees) at 14 MPH (12 knots; 6.2 m/s)
Visibility: 6 or more miles (10+ km)
Ceiling: ceiling and visibility are OK
Clouds: unknown
Weather: no significant weather observed at this time

METAR text: EGAA 220020Z 14010KT CAVOK 10/07 Q1022
Conditions at: EGAA (BELFAST/ALDERGRO, GB) observed 0020 UTC 22 February 2019
Temperature: 10.0°C (50°F)
Dewpoint: 7.0°C (45°F) [RH = 82%]
Pressure (altimeter): 30.18 inches Hg (1022.0 mb)
Winds: from the SE (140 degrees) at 12 MPH (10 knots; 5.1 m/s)
Visibility: 6 or more miles (10+ km)
Ceiling: ceiling and visibility are OK
Clouds: unknown
Weather: no significant weather observed at this time

METAR text: EGAA 212350Z 15011KT CAVOK 10/07 Q1023
Conditions at: EGAA (BELFAST/ALDERGRO, GB) observed 2350 UTC 21 February 2019
Temperature: 10.0°C (50°F)
Dewpoint: 7.0°C (45°F) [RH = 82%]
Pressure (altimeter): 30.21 inches Hg (1023.0 mb)
Winds: from the SSE (150 degrees) at 13 MPH (11 knots; 5.7 m/s)
Visibility: 6 or more miles (10+ km)
Ceiling: ceiling and visibility are OK
Clouds: unknown
Weather: no significant weather observed at this time

METAR text: EGAA 212320Z 16011KT CAVOK 10/07 Q1022
Conditions at: EGAA (BELFAST/ALDERGRO, GB) observed 2320 UTC 21 February 2019
Temperature: 10.0°C (50°F)
Dewpoint: 7.0°C (45°F) [RH = 82%]
Pressure (altimeter): 30.18 inches Hg (1022.0 mb)
Winds: from the SSE (160 degrees) at 13 MPH (11 knots; 5.7 m/s)
Visibility: 6 or more miles (10+ km)
Ceiling: ceiling and visibility are OK
Clouds: unknown
Weather: no significant weather observed at this time

METAR text: EGAA 212250Z 13004KT 080V190 9999 FEW023 09/07 Q1022
Conditions at: EGAA (BELFAST/ALDERGRO, GB) observed 2250 UTC 21 February 2019
Temperature: 9.0°C (48°F)
Dewpoint: 7.0°C (45°F) [RH = 87%]
Pressure (altimeter): 30.18 inches Hg (1022.0 mb)
Winds: from the SE (130 degrees) at 5 MPH (4 knots; 2.1 m/s)
Visibility: 6 or more miles (10+ km)
Ceiling: at least 12,000 feet AGL
Clouds: few clouds at 2300 feet AGL
Weather: no significant weather observed at this time

METAR text: EGAA 212220Z 14008KT 120V190 9999 SCT012 BKN024 10/07 Q1023
Conditions at: EGAA (BELFAST/ALDERGRO, GB) observed 2220 UTC 21 February 2019
Temperature: 10.0°C (50°F)
Dewpoint: 7.0°C (45°F) [RH = 82%]
Pressure (altimeter): 30.21 inches Hg (1023.0 mb)
Winds: from the SE (140 degrees) at 9 MPH (8 knots; 4.1 m/s)
Visibility: 6 or more miles (10+ km)
Ceiling: 2400 feet AGL
Clouds: scattered clouds at 1200 feet AGL
broken clouds at 2400 feet AGL
Weather: no significant weather observed at this time

METAR text: EGAA 212150Z 17011KT 140V200 9999 BKN015 09/07 Q1022
Conditions at: EGAA (BELFAST/ALDERGRO, GB) observed 2150 UTC 21 February 2019
Temperature: 9.0°C (48°F)
Dewpoint: 7.0°C (45°F) [RH = 87%]
Pressure (altimeter): 30.18 inches Hg (1022.0 mb)
Winds: from the S (170 degrees) at 13 MPH (11 knots; 5.7 m/s)
Visibility: 6 or more miles (10+ km)
Ceiling: 1500 feet AGL
Clouds: broken clouds at 1500 feet AGL
Weather: no significant weather observed at this time

METAR text: EGAA 212120Z 15005KT 9999 BKN016 08/06 Q1022
Conditions at: EGAA (BELFAST/ALDERGRO, GB) observed 2120 UTC 21 February 2019
Temperature: 8.0°C (46°F)
Dewpoint: 6.0°C (43°F) [RH = 87%]
Pressure (altimeter): 30.18 inches Hg (1022.0 mb)
Winds: from the SSE (150 degrees) at 6 MPH (5 knots; 2.6 m/s)
Visibility: 6 or more miles (10+ km)
Ceiling: 1600 feet AGL
Clouds: broken clouds at 1600 feet AGL
Weather: no significant weather observed at this time

METAR text: EGAA 212050Z 13004KT 080V160 CAVOK 08/05 Q1021
Conditions at: EGAA (BELFAST/ALDERGRO, GB) observed 2050 UTC 21 February 2019
Temperature: 8.0°C (46°F)
Dewpoint: 5.0°C (41°F) [RH = 81%]
Pressure (altimeter): 30.15 inches Hg (1021.0 mb)
Winds: from the SE (130 degrees) at 5 MPH (4 knots; 2.1 m/s)
Visibility: 6 or more miles (10+ km)
Ceiling: ceiling and visibility are OK
Clouds: unknown
Weather: no significant weather observed at this time

METAR text: EGAA 212020Z 17006KT 140V200 CAVOK 09/06 Q1021
Conditions at: EGAA (BELFAST/ALDERGRO, GB) observed 2020 UTC 21 February 2019
Temperature: 9.0°C (48°F)
Dewpoint: 6.0°C (43°F) [RH = 81%]
Pressure (altimeter): 30.15 inches Hg (1021.0 mb)
Winds: from the S (170 degrees) at 7 MPH (6 knots; 3.1 m/s)
Visibility: 6 or more miles (10+ km)
Ceiling: ceiling and visibility are OK
Clouds: unknown
Weather: no significant weather observed at this time

METAR text: EGAA 211950Z 15008KT CAVOK 09/06 Q1021
Conditions at: EGAA (BELFAST/ALDERGRO, GB) observed 1950 UTC 21 February 2019
Temperature: 9.0°C (48°F)
Dewpoint: 6.0°C (43°F) [RH = 81%]
Pressure (altimeter): 30.15 inches Hg (1021.0 mb)
Winds: from the SSE (150 degrees) at 9 MPH (8 knots; 4.1 m/s)
Visibility: 6 or more miles (10+ km)
Ceiling: ceiling and visibility are OK
Clouds: unknown
Weather: no significant weather observed at this time

METAR text: EGAA 211920Z 14006KT CAVOK 09/06 Q1021
Conditions at: EGAA (BELFAST/ALDERGRO, GB) observed 1920 UTC 21 February 2019
Temperature: 9.0°C (48°F)
Dewpoint: 6.0°C (43°F) [RH = 81%]
Pressure (altimeter): 30.15 inches Hg (1021.0 mb)
Winds: from the SE (140 degrees) at 7 MPH (6 knots; 3.1 m/s)
Visibility: 6 or more miles (10+ km)
Ceiling: ceiling and visibility are OK
Clouds: unknown
Weather: no significant weather observed at this time

METAR text: EGAA 211850Z 14004KT 120V190 9999 BKN022 10/06 Q1021
Conditions at: EGAA (BELFAST/ALDERGRO, GB) observed 1850 UTC 21 February 2019
Temperature: 10.0°C (50°F)
Dewpoint: 6.0°C (43°F) [RH = 76%]
Pressure (altimeter): 30.15 inches Hg (1021.0 mb)
Winds: from the SE (140 degrees) at 5 MPH (4 knots; 2.1 m/s)
Visibility: 6 or more miles (10+ km)
Ceiling: 2200 feet AGL
Clouds: broken clouds at 2200 feet AGL
Weather: no significant weather observed at this time

METAR text: EGAA 211820Z 17006KT 140V200 9999 BKN022 10/07 Q1021
Conditions at: EGAA (BELFAST/ALDERGRO, GB) observed 1820 UTC 21 February 2019
Temperature: 10.0°C (50°F)
Dewpoint: 7.0°C (45°F) [RH = 82%]
Pressure (altimeter): 30.15 inches Hg (1021.0 mb)
Winds: from the S (170 degrees) at 7 MPH (6 knots; 3.1 m/s)
Visibility: 6 or more miles (10+ km)
Ceiling: 2200 feet AGL
Clouds: broken clouds at 2200 feet AGL
Weather: no significant weather observed at this time

METAR text: EGAA 211750Z 19010KT 9999 FEW025 11/07 Q1020
Conditions at: EGAA (BELFAST/ALDERGRO, GB) observed 1750 UTC 21 February 2019
Temperature: 11.0°C (52°F)
Dewpoint: 7.0°C (45°F) [RH = 76%]
Pressure (altimeter): 30.12 inches Hg (1020.0 mb)
Winds: from the S (190 degrees) at 12 MPH (10 knots; 5.1 m/s)
Visibility: 6 or more miles (10+ km)
Ceiling: at least 12,000 feet AGL
Clouds: few clouds at 2500 feet AGL
Weather: no significant weather observed at this time

METAR text: EGAA 211720Z 17007KT 140V200 9999 FEW024 11/07 Q1020
Conditions at: EGAA (BELFAST/ALDERGRO, GB) observed 1720 UTC 21 February 2019
Temperature: 11.0°C (52°F)
Dewpoint: 7.0°C (45°F) [RH = 76%]
Pressure (altimeter): 30.12 inches Hg (1020.0 mb)
Winds: from the S (170 degrees) at 8 MPH (7 knots; 3.6 m/s)
Visibility: 6 or more miles (10+ km)
Ceiling: at least 12,000 feet AGL
Clouds: few clouds at 2400 feet AGL
Weather: no significant weather observed at this time

METAR text: EGAA 211620Z 17009KT 130V210 9999 FEW025 13/08 Q1020
Conditions at: EGAA (BELFAST/ALDERGRO, GB) observed 1620 UTC 21 February 2019
Temperature: 13.0°C (55°F)
Dewpoint: 8.0°C (46°F) [RH = 72%]
Pressure (altimeter): 30.12 inches Hg (1020.0 mb)
Winds: from the S (170 degrees) at 10 MPH (9 knots; 4.6 m/s)
Visibility: 6 or more miles (10+ km)
Ceiling: at least 12,000 feet AGL
Clouds: few clouds at 2500 feet AGL
Weather: no significant weather observed at this time

METAR text: EGAA 211550Z 19010KT 150V210 9999 FEW025 13/08 Q1019
Conditions at: EGAA (BELFAST/ALDERGRO, GB) observed 1550 UTC 21 February 2019
Temperature: 13.0°C (55°F)
Dewpoint: 8.0°C (46°F) [RH = 72%]
Pressure (altimeter): 30.09 inches Hg (1019.0 mb)
Winds: from the S (190 degrees) at 12 MPH (10 knots; 5.1 m/s)
Visibility: 6 or more miles (10+ km)
Ceiling: at least 12,000 feet AGL
Clouds: few clouds at 2500 feet AGL
Weather: no significant weather observed at this time

METAR text: EGAA 211520Z 18010KT 150V210 9999 FEW025 13/08 Q1019
Conditions at: EGAA (BELFAST/ALDERGRO, GB) observed 1520 UTC 21 February 2019
Temperature: 13.0°C (55°F)
Dewpoint: 8.0°C (46°F) [RH = 72%]
Pressure (altimeter): 30.09 inches Hg (1019.0 mb)
Winds: from the S (180 degrees) at 12 MPH (10 knots; 5.1 m/s)
Visibility: 6 or more miles (10+ km)
Ceiling: at least 12,000 feet AGL
Clouds: few clouds at 2500 feet AGL
Weather: no significant weather observed at this time

METAR text: EGAA 211450Z 18012KT 9999 FEW020 13/08 Q1019
Conditions at: EGAA (BELFAST/ALDERGRO, GB) observed 1450 UTC 21 February 2019
Temperature: 13.0°C (55°F)
Dewpoint: 8.0°C (46°F) [RH = 72%]
Pressure (altimeter): 30.09 inches Hg (1019.0 mb)
Winds: from the S (180 degrees) at 14 MPH (12 knots; 6.2 m/s)
Visibility: 6 or more miles (10+ km)
Ceiling: at least 12,000 feet AGL
Clouds: few clouds at 2000 feet AGL
Weather: no significant weather observed at this time

METAR text: EGAA 211420Z 18012KT 9999 FEW020 13/09 Q1019
Conditions at: EGAA (BELFAST/ALDERGRO, GB) observed 1420 UTC 21 February 2019
Temperature: 13.0°C (55°F)
Dewpoint: 9.0°C (48°F) [RH = 77%]
Pressure (altimeter): 30.09 inches Hg (1019.0 mb)
Winds: from the S (180 degrees) at 14 MPH (12 knots; 6.2 m/s)
Visibility: 6 or more miles (10+ km)
Ceiling: at least 12,000 feet AGL
Clouds: few clouds at 2000 feet AGL
Weather: no significant weather observed at this time

METAR text: EGAA 211350Z 19011KT 9999 FEW019 13/09 Q1019
Conditions at: EGAA (BELFAST/ALDERGRO, GB) observed 1350 UTC 21 February 2019
Temperature: 13.0°C (55°F)
Dewpoint: 9.0°C (48°F) [RH = 77%]
Pressure (altimeter): 30.09 inches Hg (1019.0 mb)
Winds: from the S (190 degrees) at 13 MPH (11 knots; 5.7 m/s)
Visibility: 6 or more miles (10+ km)
Ceiling: at least 12,000 feet AGL
Clouds: few clouds at 1900 feet AGL
Weather: no significant weather observed at this time

METAR text: EGAA 211320Z 18013KT 9999 FEW017 13/09 Q1019
Conditions at: EGAA (BELFAST/ALDERGRO, GB) observed 1320 UTC 21 February 2019
Temperature: 13.0°C (55°F)
Dewpoint: 9.0°C (48°F) [RH = 77%]
Pressure (altimeter): 30.09 inches Hg (1019.0 mb)
Winds: from the S (180 degrees) at 15 MPH (13 knots; 6.7 m/s)
Visibility: 6 or more miles (10+ km)
Ceiling: at least 12,000 feet AGL
Clouds: few clouds at 1700 feet AGL
Weather: no significant weather observed at this time

METAR text: EGAA 211250Z 18012KT 9999 SCT015 13/09 Q1018
Conditions at: EGAA (BELFAST/ALDERGRO, GB) observed 1250 UTC 21 February 2019
Temperature: 13.0°C (55°F)
Dewpoint: 9.0°C (48°F) [RH = 77%]
Pressure (altimeter): 30.06 inches Hg (1018.0 mb)
Winds: from the S (180 degrees) at 14 MPH (12 knots; 6.2 m/s)
Visibility: 6 or more miles (10+ km)
Ceiling: at least 12,000 feet AGL
Clouds: scattered clouds at 1500 feet AGL
Weather: no significant weather observed at this time

METAR text: EGAA 211220Z 19013KT 160V220 9999 BKN016 13/09 Q1018
Conditions at: EGAA (BELFAST/ALDERGRO, GB) observed 1220 UTC 21 February 2019
Temperature: 13.0°C (55°F)
Dewpoint: 9.0°C (48°F) [RH = 77%]
Pressure (altimeter): 30.06 inches Hg (1018.0 mb)
Winds: from the S (190 degrees) at 15 MPH (13 knots; 6.7 m/s)
Visibility: 6 or more miles (10+ km)
Ceiling: 1600 feet AGL
Clouds: broken clouds at 1600 feet AGL
Weather: no significant weather observed at this time

METAR text: EGAA 211150Z 18012KT 150V220 9999 SCT013 BKN019 13/10 Q1018
Conditions at: EGAA (BELFAST/ALDERGRO, GB) observed 1150 UTC 21 February 2019
Temperature: 13.0°C (55°F)
Dewpoint: 10.0°C (50°F) [RH = 82%]
Pressure (altimeter): 30.06 inches Hg (1018.0 mb)
Winds: from the S (180 degrees) at 14 MPH (12 knots; 6.2 m/s)
Visibility: 6 or more miles (10+ km)
Ceiling: 1900 feet AGL
Clouds: scattered clouds at 1300 feet AGL
broken clouds at 1900 feet AGL
Weather: no significant weather observed at this time

METAR text: EGAA 211120Z 18009KT 150V220 9999 BKN018 12/09 Q1018
Conditions at: EGAA (BELFAST/ALDERGRO, GB) observed 1120 UTC 21 February 2019
Temperature: 12.0°C (54°F)
Dewpoint: 9.0°C (48°F) [RH = 82%]
Pressure (altimeter): 30.06 inches Hg (1018.0 mb)
Winds: from the S (180 degrees) at 10 MPH (9 knots; 4.6 m/s)
Visibility: 6 or more miles (10+ km)
Ceiling: 1800 feet AGL
Clouds: broken clouds at 1800 feet AGL
Weather: no significant weather observed at this time

METAR text: EGAA 211050Z 18012KT 9999 BKN018 12/09 Q1018
Conditions at: EGAA (BELFAST/ALDERGRO, GB) observed 1050 UTC 21 February 2019
Temperature: 12.0°C (54°F)
Dewpoint: 9.0°C (48°F) [RH = 82%]
Pressure (altimeter): 30.06 inches Hg (1018.0 mb)
Winds: from the S (180 degrees) at 14 MPH (12 knots; 6.2 m/s)
Visibility: 6 or more miles (10+ km)
Ceiling: 1800 feet AGL
Clouds: broken clouds at 1800 feet AGL
Weather: no significant weather observed at this time

METAR text: EGAA 211020Z 19013KT 9999 BKN016 12/09 Q1017
Conditions at: EGAA (BELFAST/ALDERGRO, GB) observed 1020 UTC 21 February 2019
Temperature: 12.0°C (54°F)
Dewpoint: 9.0°C (48°F) [RH = 82%]
Pressure (altimeter): 30.03 inches Hg (1017.0 mb)
Winds: from the S (190 degrees) at 15 MPH (13 knots; 6.7 m/s)
Visibility: 6 or more miles (10+ km)
Ceiling: 1600 feet AGL
Clouds: broken clouds at 1600 feet AGL
Weather: no significant weather observed at this time

METAR text: EGAA 210950Z 19012KT 9999 BKN012 12/09 Q1017
Conditions at: EGAA (BELFAST/ALDERGRO, GB) observed 0950 UTC 21 February 2019
Temperature: 12.0°C (54°F)
Dewpoint: 9.0°C (48°F) [RH = 82%]
Pressure (altimeter): 30.03 inches Hg (1017.0 mb)
Winds: from the S (190 degrees) at 14 MPH (12 knots; 6.2 m/s)
Visibility: 6 or more miles (10+ km)
Ceiling: 1200 feet AGL
Clouds: broken clouds at 1200 feet AGL
Weather: no significant weather observed at this time

METAR text: EGAA 210920Z 19008KT 9999 BKN013 BKN022 12/09 Q1017
Conditions at: EGAA (BELFAST/ALDERGRO, GB) observed 0920 UTC 21 February 2019
Temperature: 12.0°C (54°F)
Dewpoint: 9.0°C (48°F) [RH = 82%]
Pressure (altimeter): 30.03 inches Hg (1017.0 mb)
Winds: from the S (190 degrees) at 9 MPH (8 knots; 4.1 m/s)
Visibility: 6 or more miles (10+ km)
Ceiling: 1300 feet AGL
Clouds: broken clouds at 1300 feet AGL
broken clouds at 2200 feet AGL
Weather: no significant weather observed at this time

METAR text: EGAA 210850Z 18011KT 9999 BKN017 12/09 Q1016
Conditions at: EGAA (BELFAST/ALDERGRO, GB) observed 0850 UTC 21 February 2019
Temperature: 12.0°C (54°F)
Dewpoint: 9.0°C (48°F) [RH = 82%]
Pressure (altimeter): 30.00 inches Hg (1016.0 mb)
Winds: from the S (180 degrees) at 13 MPH (11 knots; 5.7 m/s)
Visibility: 6 or more miles (10+ km)
Ceiling: 1700 feet AGL
Clouds: broken clouds at 1700 feet AGL
Weather: no significant weather observed at this time

METAR text: EGAA 210820Z 18009KT 150V210 9999 BKN016 12/09 Q1016
Conditions at: EGAA (BELFAST/ALDERGRO, GB) observed 0820 UTC 21 February 2019
Temperature: 12.0°C (54°F)
Dewpoint: 9.0°C (48°F) [RH = 82%]
Pressure (altimeter): 30.00 inches Hg (1016.0 mb)
Winds: from the S (180 degrees) at 10 MPH (9 knots; 4.6 m/s)
Visibility: 6 or more miles (10+ km)
Ceiling: 1600 feet AGL
Clouds: broken clouds at 1600 feet AGL
Weather: no significant weather observed at this time

METAR text: EGAA 210750Z 18010KT 9999 BKN019 12/09 Q1015
Conditions at: EGAA (BELFAST/ALDERGRO, GB) observed 0750 UTC 21 February 2019
Temperature: 12.0°C (54°F)
Dewpoint: 9.0°C (48°F) [RH = 82%]
Pressure (altimeter): 29.97 inches Hg (1015.0 mb)
Winds: from the S (180 degrees) at 12 MPH (10 knots; 5.1 m/s)
Visibility: 6 or more miles (10+ km)
Ceiling: 1900 feet AGL
Clouds: broken clouds at 1900 feet AGL
Weather: no significant weather observed at this time

METAR text: EGAA 210720Z 19009KT 9999 BKN017 12/10 Q1015
Conditions at: EGAA (BELFAST/ALDERGRO, GB) observed 0720 UTC 21 February 2019
Temperature: 12.0°C (54°F)
Dewpoint: 10.0°C (50°F) [RH = 88%]
Pressure (altimeter): 29.97 inches Hg (1015.0 mb)
Winds: from the S (190 degrees) at 10 MPH (9 knots; 4.6 m/s)
Visibility: 6 or more miles (10+ km)
Ceiling: 1700 feet AGL
Clouds: broken clouds at 1700 feet AGL
Weather: no significant weather observed at this time

METAR text: EGAA 210650Z 18008KT 150V220 9999 BKN014 12/10 Q1015
Conditions at: EGAA (BELFAST/ALDERGRO, GB) observed 0650 UTC 21 February 2019
Temperature: 12.0°C (54°F)
Dewpoint: 10.0°C (50°F) [RH = 88%]
Pressure (altimeter): 29.97 inches Hg (1015.0 mb)
Winds: from the S (180 degrees) at 9 MPH (8 knots; 4.1 m/s)
Visibility: 6 or more miles (10+ km)
Ceiling: 1400 feet AGL
Clouds: broken clouds at 1400 feet AGL
Weather: no significant weather observed at this time

METAR text: EGAA 210620Z 18009KT 150V210 9999 BKN013 BKN017 12/10 Q1014
Conditions at: EGAA (BELFAST/ALDERGRO, GB) observed 0620 UTC 21 February 2019
Temperature: 12.0°C (54°F)
Dewpoint: 10.0°C (50°F) [RH = 88%]
Pressure (altimeter): 29.94 inches Hg (1014.0 mb)
Winds: from the S (180 degrees) at 10 MPH (9 knots; 4.6 m/s)
Visibility: 6 or more miles (10+ km)
Ceiling: 1300 feet AGL
Clouds: broken clouds at 1300 feet AGL
broken clouds at 1700 feet AGL
Weather: no significant weather observed at this time

METAR text: EGAA 210550Z 18007KT 9999 BKN013 12/10 Q1014
Conditions at: EGAA (BELFAST/ALDERGRO, GB) observed 0550 UTC 21 February 2019
Temperature: 12.0°C (54°F)
Dewpoint: 10.0°C (50°F) [RH = 88%]
Pressure (altimeter): 29.94 inches Hg (1014.0 mb)
Winds: from the S (180 degrees) at 8 MPH (7 knots; 3.6 m/s)
Visibility: 6 or more miles (10+ km)
Ceiling: 1300 feet AGL
Clouds: broken clouds at 1300 feet AGL
Weather: no significant weather observed at this time

METAR text: EGAA 210520Z 18009KT 140V210 9999 BKN014 12/10 Q1014
Conditions at: EGAA (BELFAST/ALDERGRO, GB) observed 0520 UTC 21 February 2019
Temperature: 12.0°C (54°F)
Dewpoint: 10.0°C (50°F) [RH = 88%]
Pressure (altimeter): 29.94 inches Hg (1014.0 mb)
Winds: from the S (180 degrees) at 10 MPH (9 knots; 4.6 m/s)
Visibility: 6 or more miles (10+ km)
Ceiling: 1400 feet AGL
Clouds: broken clouds at 1400 feet AGL
Weather: no significant weather observed at this time

METAR text: EGAA 210450Z 17008KT 130V200 9999 BKN011 12/10 Q1013
Conditions at: EGAA (BELFAST/ALDERGRO, GB) observed 0450 UTC 21 February 2019
Temperature: 12.0°C (54°F)
Dewpoint: 10.0°C (50°F) [RH = 88%]
Pressure (altimeter): 29.91 inches Hg (1013.0 mb)
Winds: from the S (170 degrees) at 9 MPH (8 knots; 4.1 m/s)
Visibility: 6 or more miles (10+ km)
Ceiling: 1100 feet AGL
Clouds: broken clouds at 1100 feet AGL
Weather: no significant weather observed at this time

METAR text: EGAA 210420Z AUTO 19009KT 9999 BKN010/// OVC015/// 12/10 Q1013
Conditions at: EGAA (BELFAST/ALDERGRO, GB) observed 0420 UTC 21 February 2019
Temperature: 12.0°C (54°F)
Dewpoint: 10.0°C (50°F) [RH = 88%]
Pressure (altimeter): 29.91 inches Hg (1013.0 mb)
Winds: from the S (190 degrees) at 10 MPH (9 knots; 4.6 m/s)
Visibility: 6 or more miles (10+ km)
Ceiling: 1000 feet AGL
Clouds: broken clouds at 1000 feet AGL
overcast cloud deck at 1500 feet AGL
Weather: no significant weather observed at this time

METAR text: EGAA 210350Z AUTO 20008KT 160V230 9999 OVC010/// 12/10 Q1013
Conditions at: EGAA (BELFAST/ALDERGRO, GB) observed 0350 UTC 21 February 2019
Temperature: 12.0°C (54°F)
Dewpoint: 10.0°C (50°F) [RH = 88%]
Pressure (altimeter): 29.91 inches Hg (1013.0 mb)
Winds: from the SSW (200 degrees) at 9 MPH (8 knots; 4.1 m/s)
Visibility: 6 or more miles (10+ km)
Ceiling: 1000 feet AGL
Clouds: overcast cloud deck at 1000 feet AGL
Weather: no significant weather observed at this time

METAR text: EGAA 210320Z AUTO 19008KT 9999 SCT011/// 11/10 Q1013
Conditions at: EGAA (BELFAST/ALDERGRO, GB) observed 0320 UTC 21 February 2019
Temperature: 11.0°C (52°F)
Dewpoint: 10.0°C (50°F) [RH = 94%]
Pressure (altimeter): 29.91 inches Hg (1013.0 mb)
Winds: from the S (190 degrees) at 9 MPH (8 knots; 4.1 m/s)
Visibility: 6 or more miles (10+ km)
Ceiling: at least 12,000 feet AGL
Clouds: scattered clouds at 1100 feet AGL
Weather: no significant weather observed at this time

METAR text: EGAA 210250Z 18007KT 9999 SCT009 12/10 Q1012
Conditions at: EGAA (BELFAST/ALDERGRO, GB) observed 0250 UTC 21 February 2019
Temperature: 12.0°C (54°F)
Dewpoint: 10.0°C (50°F) [RH = 88%]
Pressure (altimeter): 29.88 inches Hg (1012.0 mb)
Winds: from the S (180 degrees) at 8 MPH (7 knots; 3.6 m/s)
Visibility: 6 or more miles (10+ km)
Ceiling: at least 12,000 feet AGL
Clouds: scattered clouds at 900 feet AGL
Weather: no significant weather observed at this time

METAR text: EGAA 210220Z 18008KT 9999 BKN008 12/10 Q1012
Conditions at: EGAA (BELFAST/ALDERGRO, GB) observed 0220 UTC 21 February 2019
Temperature: 12.0°C (54°F)
Dewpoint: 10.0°C (50°F) [RH = 88%]
Pressure (altimeter): 29.88 inches Hg (1012.0 mb)
Winds: from the S (180 degrees) at 9 MPH (8 knots; 4.1 m/s)
Visibility: 6 or more miles (10+ km)
Ceiling: 800 feet AGL
Clouds: broken clouds at 800 feet AGL
Weather: no significant weather observed at this time

METAR text: EGAA 210150Z 18008KT 9999 BKN007 OVC010 11/10 Q1012
Conditions at: EGAA (BELFAST/ALDERGRO, GB) observed 0150 UTC 21 February 2019
Temperature: 11.0°C (52°F)
Dewpoint: 10.0°C (50°F) [RH = 94%]
Pressure (altimeter): 29.88 inches Hg (1012.0 mb)
Winds: from the S (180 degrees) at 9 MPH (8 knots; 4.1 m/s)
Visibility: 6 or more miles (10+ km)
Ceiling: 700 feet AGL
Clouds: broken clouds at 700 feet AGL
overcast cloud deck at 1000 feet AGL
Weather: no significant weather observed at this time

METAR text: EGAA 210120Z 19008KT 160V220 9999 OVC009 12/10 Q1012
Conditions at: EGAA (BELFAST/ALDERGRO, GB) observed 0120 UTC 21 February 2019
Temperature: 12.0°C (54°F)
Dewpoint: 10.0°C (50°F) [RH = 88%]
Pressure (altimeter): 29.88 inches Hg (1012.0 mb)
Winds: from the S (190 degrees) at 9 MPH (8 knots; 4.1 m/s)
Visibility: 6 or more miles (10+ km)
Ceiling: 900 feet AGL
Clouds: overcast cloud deck at 900 feet AGL
Weather: no significant weather observed at this time

METAR text: EGAA 210050Z 19008KT 9999 OVC009 11/10 Q1012
Conditions at: EGAA (BELFAST/ALDERGRO, GB) observed 0050 UTC 21 February 2019
Temperature: 11.0°C (52°F)
Dewpoint: 10.0°C (50°F) [RH = 94%]
Pressure (altimeter): 29.88 inches Hg (1012.0 mb)
Winds: from the S (190 degrees) at 9 MPH (8 knots; 4.1 m/s)
Visibility: 6 or more miles (10+ km)
Ceiling: 900 feet AGL
Clouds: overcast cloud deck at 900 feet AGL
Weather: no significant weather observed at this time

METAR text: EGAA 210020Z 19008KT 150V220 9999 BKN009 OVC022 11/10 Q1011
Conditions at: EGAA (BELFAST/ALDERGRO, GB) observed 0020 UTC 21 February 2019
Temperature: 11.0°C (52°F)
Dewpoint: 10.0°C (50°F) [RH = 94%]
Pressure (altimeter): 29.85 inches Hg (1011.0 mb)
Winds: from the S (190 degrees) at 9 MPH (8 knots; 4.1 m/s)
Visibility: 6 or more miles (10+ km)
Ceiling: 900 feet AGL
Clouds: broken clouds at 900 feet AGL
overcast cloud deck at 2200 feet AGL
Weather: no significant weather observed at this time

METAR text: EGAA 202350Z 19007KT 150V210 9999 BKN011 BKN043 11/09 Q1011
Conditions at: EGAA (BELFAST/ALDERGRO, GB) observed 2350 UTC 20 February 2019
Temperature: 11.0°C (52°F)
Dewpoint: 9.0°C (48°F) [RH = 87%]
Pressure (altimeter): 29.85 inches Hg (1011.0 mb)
Winds: from the S (190 degrees) at 8 MPH (7 knots; 3.6 m/s)
Visibility: 6 or more miles (10+ km)
Ceiling: 1100 feet AGL
Clouds: broken clouds at 1100 feet AGL
broken clouds at 4300 feet AGL
Weather: no significant weather observed at this time

METAR text: EGAA 202320Z 19008KT 160V220 9999 SCT009 BKN014 BKN041 11/10 Q1011
Conditions at: EGAA (BELFAST/ALDERGRO, GB) observed 2320 UTC 20 February 2019
Temperature: 11.0°C (52°F)
Dewpoint: 10.0°C (50°F) [RH = 94%]
Pressure (altimeter): 29.85 inches Hg (1011.0 mb)
Winds: from the S (190 degrees) at 9 MPH (8 knots; 4.1 m/s)
Visibility: 6 or more miles (10+ km)
Ceiling: 1400 feet AGL
Clouds: scattered clouds at 900 feet AGL
broken clouds at 1400 feet AGL
broken clouds at 4100 feet AGL
Weather: no significant weather observed at this time

METAR text: EGAA 202250Z 20009KT 9999 SCT009 11/10 Q1011
Conditions at: EGAA (BELFAST/ALDERGRO, GB) observed 2250 UTC 20 February 2019
Temperature: 11.0°C (52°F)
Dewpoint: 10.0°C (50°F) [RH = 94%]
Pressure (altimeter): 29.85 inches Hg (1011.0 mb)
Winds: from the SSW (200 degrees) at 10 MPH (9 knots; 4.6 m/s)
Visibility: 6 or more miles (10+ km)
Ceiling: at least 12,000 feet AGL
Clouds: scattered clouds at 900 feet AGL
Weather: no significant weather observed at this time

METAR text: EGAA 202220Z 19009KT 9999 OVC010 11/10 Q1011
Conditions at: EGAA (BELFAST/ALDERGRO, GB) observed 2220 UTC 20 February 2019
Temperature: 11.0°C (52°F)
Dewpoint: 10.0°C (50°F) [RH = 94%]
Pressure (altimeter): 29.85 inches Hg (1011.0 mb)
Winds: from the S (190 degrees) at 10 MPH (9 knots; 4.6 m/s)
Visibility: 6 or more miles (10+ km)
Ceiling: 1000 feet AGL
Clouds: overcast cloud deck at 1000 feet AGL
Weather: no significant weather observed at this time

METAR text: EGAA 202150Z 17008KT 9999 BKN011 BKN027 11/10 Q1010
Conditions at: EGAA (BELFAST/ALDERGRO, GB) observed 2150 UTC 20 February 2019
Temperature: 11.0°C (52°F)
Dewpoint: 10.0°C (50°F) [RH = 94%]
Pressure (altimeter): 29.82 inches Hg (1010.0 mb)
Winds: from the S (170 degrees) at 9 MPH (8 knots; 4.1 m/s)
Visibility: 6 or more miles (10+ km)
Ceiling: 1100 feet AGL
Clouds: broken clouds at 1100 feet AGL
broken clouds at 2700 feet AGL
Weather: no significant weather observed at this time

METAR text: EGAA 202120Z 17008KT 140V200 9999 SCT034 11/09 Q1010
Conditions at: EGAA (BELFAST/ALDERGRO, GB) observed 2120 UTC 20 February 2019
Temperature: 11.0°C (52°F)
Dewpoint: 9.0°C (48°F) [RH = 87%]
Pressure (altimeter): 29.82 inches Hg (1010.0 mb)
Winds: from the S (170 degrees) at 9 MPH (8 knots; 4.1 m/s)
Visibility: 6 or more miles (10+ km)
Ceiling: at least 12,000 feet AGL
Clouds: scattered clouds at 3400 feet AGL
Weather: no significant weather observed at this time

METAR text: EGAA 202050Z 17010KT 140V200 9999 BKN035 12/10 Q1010
Conditions at: EGAA (BELFAST/ALDERGRO, GB) observed 2050 UTC 20 February 2019
Temperature: 12.0°C (54°F)
Dewpoint: 10.0°C (50°F) [RH = 88%]
Pressure (altimeter): 29.82 inches Hg (1010.0 mb)
Winds: from the S (170 degrees) at 12 MPH (10 knots; 5.1 m/s)
Visibility: 6 or more miles (10+ km)
Ceiling: 3500 feet AGL
Clouds: broken clouds at 3500 feet AGL
Weather: no significant weather observed at this time

METAR text: EGAA 202020Z 17008KT 9999 BKN039 12/10 Q1010
Conditions at: EGAA (BELFAST/ALDERGRO, GB) observed 2020 UTC 20 February 2019
Temperature: 12.0°C (54°F)
Dewpoint: 10.0°C (50°F) [RH = 88%]
Pressure (altimeter): 29.82 inches Hg (1010.0 mb)
Winds: from the S (170 degrees) at 9 MPH (8 knots; 4.1 m/s)
Visibility: 6 or more miles (10+ km)
Ceiling: 3900 feet AGL
Clouds: broken clouds at 3900 feet AGL
Weather: no significant weather observed at this time

METAR text: EGAA 201950Z 18009KT 150V220 9999 BKN037 12/10 Q1010
Conditions at: EGAA (BELFAST/ALDERGRO, GB) observed 1950 UTC 20 February 2019
Temperature: 12.0°C (54°F)
Dewpoint: 10.0°C (50°F) [RH = 88%]
Pressure (altimeter): 29.82 inches Hg (1010.0 mb)
Winds: from the S (180 degrees) at 10 MPH (9 knots; 4.6 m/s)
Visibility: 6 or more miles (10+ km)
Ceiling: 3700 feet AGL
Clouds: broken clouds at 3700 feet AGL
Weather: no significant weather observed at this time

METAR text: EGAA 201920Z 18008KT 9999 FEW026 BKN040 11/10 Q1010
Conditions at: EGAA (BELFAST/ALDERGRO, GB) observed 1920 UTC 20 February 2019
Temperature: 11.0°C (52°F)
Dewpoint: 10.0°C (50°F) [RH = 94%]
Pressure (altimeter): 29.82 inches Hg (1010.0 mb)
Winds: from the S (180 degrees) at 9 MPH (8 knots; 4.1 m/s)
Visibility: 6 or more miles (10+ km)
Ceiling: 4000 feet AGL
Clouds: few clouds at 2600 feet AGL
broken clouds at 4000 feet AGL
Weather: no significant weather observed at this time

METAR text: EGAA 201850Z 17005KT 130V200 9999 SCT019 BKN024 11/10 Q1009
Conditions at: EGAA (BELFAST/ALDERGRO, GB) observed 1850 UTC 20 February 2019
Temperature: 11.0°C (52°F)
Dewpoint: 10.0°C (50°F) [RH = 94%]
Pressure (altimeter): 29.79 inches Hg (1009.0 mb)
Winds: from the S (170 degrees) at 6 MPH (5 knots; 2.6 m/s)
Visibility: 6 or more miles (10+ km)
Ceiling: 2400 feet AGL
Clouds: scattered clouds at 1900 feet AGL
broken clouds at 2400 feet AGL
Weather: no significant weather observed at this time

METAR text: EGAA 201820Z 15004KT 9999 FEW016 SCT022 10/09 Q1009
Conditions at: EGAA (BELFAST/ALDERGRO, GB) observed 1820 UTC 20 February 2019
Temperature: 10.0°C (50°F)
Dewpoint: 9.0°C (48°F) [RH = 93%]
Pressure (altimeter): 29.79 inches Hg (1009.0 mb)
Winds: from the SSE (150 degrees) at 5 MPH (4 knots; 2.1 m/s)
Visibility: 6 or more miles (10+ km)
Ceiling: at least 12,000 feet AGL
Clouds: few clouds at 1600 feet AGL
scattered clouds at 2200 feet AGL
Weather: no significant weather observed at this time

METAR text: EGAA 201750Z 17004KT 9999 FEW025 SCT031 BKN039 11/10 Q1009
Conditions at: EGAA (BELFAST/ALDERGRO, GB) observed 1750 UTC 20 February 2019
Temperature: 11.0°C (52°F)
Dewpoint: 10.0°C (50°F) [RH = 94%]
Pressure (altimeter): 29.79 inches Hg (1009.0 mb)
Winds: from the S (170 degrees) at 5 MPH (4 knots; 2.1 m/s)
Visibility: 6 or more miles (10+ km)
Ceiling: 3900 feet AGL
Clouds: few clouds at 2500 feet AGL
scattered clouds at 3100 feet AGL
broken clouds at 3900 feet AGL
Weather: no significant weather observed at this time

METAR text: EGAA 201720Z 20005KT 9999 FEW028 SCT034 BKN043 11/10 Q1009
Conditions at: EGAA (BELFAST/ALDERGRO, GB) observed 1720 UTC 20 February 2019
Temperature: 11.0°C (52°F)
Dewpoint: 10.0°C (50°F) [RH = 94%]
Pressure (altimeter): 29.79 inches Hg (1009.0 mb)
Winds: from the SSW (200 degrees) at 6 MPH (5 knots; 2.6 m/s)
Visibility: 6 or more miles (10+ km)
Ceiling: 4300 feet AGL
Clouds: few clouds at 2800 feet AGL
scattered clouds at 3400 feet AGL
broken clouds at 4300 feet AGL
Weather: no significant weather observed at this time

METAR text: EGAA 201650Z 20007KT 9999 FEW027 SCT033 11/10 Q1008
Conditions at: EGAA (BELFAST/ALDERGRO, GB) observed 1650 UTC 20 February 2019
Temperature: 11.0°C (52°F)
Dewpoint: 10.0°C (50°F) [RH = 94%]
Pressure (altimeter): 29.76 inches Hg (1008.0 mb)
Winds: from the SSW (200 degrees) at 8 MPH (7 knots; 3.6 m/s)
Visibility: 6 or more miles (10+ km)
Ceiling: at least 12,000 feet AGL
Clouds: few clouds at 2700 feet AGL
scattered clouds at 3300 feet AGL
Weather: no significant weather observed at this time

METAR text: EGAA 201620Z 21010KT 9999 FEW004 SCT018 BKN024 11/10 Q1008
Conditions at: EGAA (BELFAST/ALDERGRO, GB) observed 1620 UTC 20 February 2019
Temperature: 11.0°C (52°F)
Dewpoint: 10.0°C (50°F) [RH = 94%]
Pressure (altimeter): 29.76 inches Hg (1008.0 mb)
Winds: from the SSW (210 degrees) at 12 MPH (10 knots; 5.1 m/s)
Visibility: 6 or more miles (10+ km)
Ceiling: 2400 feet AGL
Clouds: few clouds at 400 feet AGL
scattered clouds at 1800 feet AGL
broken clouds at 2400 feet AGL
Weather: no significant weather observed at this time

METAR text: EGAA 201550Z 23011KT 210V290 7000 -DZ SCT004 BKN015 11/10 Q1008
Conditions at: EGAA (BELFAST/ALDERGRO, GB) observed 1550 UTC 20 February 2019
Temperature: 11.0°C (52°F)
Dewpoint: 10.0°C (50°F) [RH = 94%]
Pressure (altimeter): 29.76 inches Hg (1008.0 mb)
Winds: from the SW (230 degrees) at 13 MPH (11 knots; 5.7 m/s)
Visibility: 4 miles ( 7 km)
Ceiling: 1500 feet AGL
Clouds: scattered clouds at 400 feet AGL
broken clouds at 1500 feet AGL
Weather: -DZ  (light drizzle)

METAR text: EGAA 201520Z 23012KT 8000 -RA FEW008 BKN015 11/10 Q1008 RERA
Conditions at: EGAA (BELFAST/ALDERGRO, GB) observed 1520 UTC 20 February 2019
Temperature: 11.0°C (52°F)
Dewpoint: 10.0°C (50°F) [RH = 94%]
Pressure (altimeter): 29.76 inches Hg (1008.0 mb)
Winds: from the SW (230 degrees) at 14 MPH (12 knots; 6.2 m/s)
Visibility: 5 miles ( 8 km)
Ceiling: 1500 feet AGL
Clouds: few clouds at 800 feet AGL
broken clouds at 1500 feet AGL
Weather: -RA  (light rain)

METAR text: EGAA 201450Z 19010KT 9999 FEW016 BKN023 13/10 Q1008
Conditions at: EGAA (BELFAST/ALDERGRO, GB) observed 1450 UTC 20 February 2019
Temperature: 13.0°C (55°F)
Dewpoint: 10.0°C (50°F) [RH = 82%]
Pressure (altimeter): 29.76 inches Hg (1008.0 mb)
Winds: from the S (190 degrees) at 12 MPH (10 knots; 5.1 m/s)
Visibility: 6 or more miles (10+ km)
Ceiling: 2300 feet AGL
Clouds: few clouds at 1600 feet AGL
broken clouds at 2300 feet AGL
Weather: no significant weather observed at this time

Forecast for: EGAA (BELFAST/ALDERGRO, GB)
Text: TAF EGAA 212303Z 2200/2224 16012KT CAVOK
Forecast period: 0000 UTC 22 February 2019 to 0000 UTC 23 February 2019
Forecast type: FROM: standard forecast or significant change
Winds: from the SSE (160 degrees) at 14 MPH (12 knots; 6.2 m/s)
Visibility: 6 or more miles 10+ km)
Ceiling: unknown
Clouds: missing
Weather: NSW  (no significant weather)
Text: PROB40
Forecast period: 0000 to 0700 UTC 22 February 2019
Forecast type: TEMPORARY: The following changes expected for less than half the time period
Winds: from the SSE (160 degrees) at 21 MPH (18 knots; 9.3 m/s)
gusting to 32 MPH (28 knots; 14.4 m/s)
Visibility: missing
Ceiling: unknown
Clouds: missing
Weather: no significant weather forecast for this period
Text: TEMPO 2200/2207 16018G28KT
Forecast period: 0700 to 1100 UTC 22 February 2019
Forecast type: TEMPORARY: The following changes expected for less than half the time period
Visibility: missing
Ceiling: 2200 feet AGL
Clouds: broken clouds at 2200 feet AGL
Weather: no significant weather forecast for this period
Text: PROB30
Forecast period: 1600 UTC 22 February 2019 to 0000 UTC 23 February 2019
Forecast type: TEMPORARY: The following changes expected for less than half the time period
Winds: from the SSE (150 degrees) at 21 MPH (18 knots; 9.3 m/s)
gusting to 32 MPH (28 knots; 14.4 m/s)
Visibility: missing
Ceiling: unknown
Clouds: missing
Weather: no significant weather forecast for this period